sensor_id;sensor_type;location;lat;lon;timestamp;P1;durP1;ratioP1;P2;durP2;ratioP2
7879;SDS011;3985;49.366;2.738;2022-11-20T00:00:31;10.00;;;8.25;;
7879;SDS011;3985;49.366;2.738;2022-11-20T00:02:59;4.50;;;4.50;;
7879;SDS011;3985;49.366;2.738;2022-11-20T00:05:26;6.75;;;6.75;;
7879;SDS011;3985;49.366;2.738;2022-11-20T00:07:54;7.50;;;7.50;;
7879;SDS011;3985;49.366;2.738;2022-11-20T00:10:21;8.25;;;8.25;;
7879;SDS011;3985;49.366;2.738;2022-11-20T00:12:49;7.50;;;7.00;;
7879;SDS011;3985;49.366;2.738;2022-11-20T00:15:19;9.25;;;9.25;;
7879;SDS011;3985;49.366;2.738;2022-11-20T00:17:46;9.00;;;9.00;;
7879;SDS011;3985;49.366;2.738;2022-11-20T00:20:14;5.00;;;5.00;;
7879;SDS011;3985;49.366;2.738;2022-11-20T00:22:42;7.00;;;7.00;;
7879;SDS011;3985;49.366;2.738;2022-11-20T00:25:09;9.00;;;7.75;;
7879;SDS011;3985;49.366;2.738;2022-11-20T00:27:37;8.00;;;8.00;;
7879;SDS011;3985;49.366;2.738;2022-11-20T00:30:05;5.75;;;5.25;;
7879;SDS011;3985;49.366;2.738;2022-11-20T00:32:35;7.00;;;7.00;;
7879;SDS011;3985;49.366;2.738;2022-11-20T00:35:03;9.25;;;7.25;;
7879;SDS011;3985;49.366;2.738;2022-11-20T00:37:31;5.50;;;5.50;;
7879;SDS011;3985;49.366;2.738;2022-11-20T00:39:58;4.25;;;4.25;;
7879;SDS011;3985;49.366;2.738;2022-11-20T00:42:26;7.00;;;7.00;;
7879;SDS011;3985;49.366;2.738;2022-11-20T00:44:54;8.50;;;6.00;;
7879;SDS011;3985;49.366;2.738;2022-11-20T00:47:21;8.75;;;7.50;;
7879;SDS011;3985;49.366;2.738;2022-11-20T00:49:50;7.00;;;7.00;;
7879;SDS011;3985;49.366;2.738;2022-11-20T00:52:18;8.00;;;8.00;;
7879;SDS011;3985;49.366;2.738;2022-11-20T00:54:45;7.50;;;7.50;;
7879;SDS011;3985;49.366;2.738;2022-11-20T00:57:13;8.00;;;8.00;;
7879;SDS011;3985;49.366;2.738;2022-11-20T00:59:41;9.00;;;7.25;;
7879;SDS011;3985;49.366;2.738;2022-11-20T01:02:09;11.75;;;9.00;;
7879;SDS011;3985;49.366;2.738;2022-11-20T01:04:36;10.00;;;7.75;;
7879;SDS011;3985;49.366;2.738;2022-11-20T01:07:05;6.00;;;5.00;;
7879;SDS011;3985;49.366;2.738;2022-11-20T01:09:33;6.25;;;6.25;;
7879;SDS011;3985;49.366;2.738;2022-11-20T01:12:01;9.00;;;7.00;;
7879;SDS011;3985;49.366;2.738;2022-11-20T01:14:28;5.50;;;5.50;;
7879;SDS011;3985;49.366;2.738;2022-11-20T01:16:56;3.75;;;3.75;;
7879;SDS011;3985;49.366;2.738;2022-11-20T01:19:23;7.00;;;7.00;;
7879;SDS011;3985;49.366;2.738;2022-11-20T01:21:52;5.00;;;3.75;;
7879;SDS011;3985;49.366;2.738;2022-11-20T01:24:21;8.75;;;8.75;;
7879;SDS011;3985;49.366;2.738;2022-11-20T01:26:50;7.00;;;7.00;;
7879;SDS011;3985;49.366;2.738;2022-11-20T01:29:19;7.00;;;4.25;;
7879;SDS011;3985;49.366;2.738;2022-11-20T01:31:47;8.25;;;8.25;;
7879;SDS011;3985;49.366;2.738;2022-11-20T01:34:16;7.00;;;7.00;;
7879;SDS011;3985;49.366;2.738;2022-11-20T01:36:44;6.25;;;6.25;;
7879;SDS011;3985;49.366;2.738;2022-11-20T01:39:13;4.00;;;4.00;;
7879;SDS011;3985;49.366;2.738;2022-11-20T01:41:44;7.00;;;5.50;;
7879;SDS011;3985;49.366;2.738;2022-11-20T01:47:26;8.00;;;8.00;;
7879;SDS011;3985;49.366;2.738;2022-11-20T01:49:58;6.50;;;6.50;;
7879;SDS011;3985;49.366;2.738;2022-11-20T01:52:32;8.25;;;6.50;;
7879;SDS011;3985;49.366;2.738;2022-11-20T01:55:02;3.25;;;3.25;;
7879;SDS011;3985;49.366;2.738;2022-11-20T01:57:33;7.00;;;7.00;;
7879;SDS011;3985;49.366;2.738;2022-11-20T02:00:17;5.25;;;4.50;;
7879;SDS011;3985;49.366;2.738;2022-11-20T02:02:56;6.00;;;6.00;;
7879;SDS011;3985;49.366;2.738;2022-11-20T02:05:27;7.25;;;5.50;;
7879;SDS011;3985;49.366;2.738;2022-11-20T02:07:57;8.00;;;6.75;;
7879;SDS011;3985;49.366;2.738;2022-11-20T02:10:26;5.25;;;5.25;;
7879;SDS011;3985;49.366;2.738;2022-11-20T02:12:56;10.00;;;7.00;;
7879;SDS011;3985;49.366;2.738;2022-11-20T02:15:41;7.25;;;6.00;;
7879;SDS011;3985;49.366;2.738;2022-11-20T02:18:09;8.00;;;6.50;;
7879;SDS011;3985;49.366;2.738;2022-11-20T02:20:39;6.50;;;5.50;;
7879;SDS011;3985;49.366;2.738;2022-11-20T02:23:08;7.75;;;6.00;;
7879;SDS011;3985;49.366;2.738;2022-11-20T02:25:40;7.00;;;4.00;;
7879;SDS011;3985;49.366;2.738;2022-11-20T02:28:09;6.00;;;6.00;;
7879;SDS011;3985;49.366;2.738;2022-11-20T02:30:37;6.50;;;6.50;;
7879;SDS011;3985;49.366;2.738;2022-11-20T02:33:04;6.50;;;6.50;;
7879;SDS011;3985;49.366;2.738;2022-11-20T02:38:17;8.00;;;6.00;;
7879;SDS011;3985;49.366;2.738;2022-11-20T02:40:47;9.00;;;6.25;;
7879;SDS011;3985;49.366;2.738;2022-11-20T02:43:15;9.00;;;7.00;;
7879;SDS011;3985;49.366;2.738;2022-11-20T02:45:42;8.00;;;8.00;;
7879;SDS011;3985;49.366;2.738;2022-11-20T02:48:11;11.25;;;7.25;;
7879;SDS011;3985;49.366;2.738;2022-11-20T02:50:39;9.00;;;8.25;;
7879;SDS011;3985;49.366;2.738;2022-11-20T02:53:08;8.00;;;8.00;;
7879;SDS011;3985;49.366;2.738;2022-11-20T02:55:35;8.00;;;8.00;;
7879;SDS011;3985;49.366;2.738;2022-11-20T02:58:04;3.50;;;3.50;;
7879;SDS011;3985;49.366;2.738;2022-11-20T03:00:32;6.50;;;6.50;;
7879;SDS011;3985;49.366;2.738;2022-11-20T03:03:01;6.75;;;5.75;;
7879;SDS011;3985;49.366;2.738;2022-11-20T03:05:28;5.50;;;5.50;;
7879;SDS011;3985;49.366;2.738;2022-11-20T03:07:56;7.00;;;5.00;;
7879;SDS011;3985;49.366;2.738;2022-11-20T03:10:24;5.50;;;5.50;;
7879;SDS011;3985;49.366;2.738;2022-11-20T03:12:52;4.50;;;4.50;;
7879;SDS011;3985;49.366;2.738;2022-11-20T03:15:23;3.50;;;3.50;;
7879;SDS011;3985;49.366;2.738;2022-11-20T03:17:52;7.25;;;5.75;;
7879;SDS011;3985;49.366;2.738;2022-11-20T03:20:21;6.00;;;6.00;;
7879;SDS011;3985;49.366;2.738;2022-11-20T03:22:48;6.00;;;6.00;;
7879;SDS011;3985;49.366;2.738;2022-11-20T03:25:16;4.50;;;3.75;;
7879;SDS011;3985;49.366;2.738;2022-11-20T03:27:44;6.50;;;5.50;;
7879;SDS011;3985;49.366;2.738;2022-11-20T03:30:11;6.00;;;4.00;;
7879;SDS011;3985;49.366;2.738;2022-11-20T03:32:41;6.00;;;6.00;;
7879;SDS011;3985;49.366;2.738;2022-11-20T03:35:09;6.00;;;6.00;;
7879;SDS011;3985;49.366;2.738;2022-11-20T03:37:36;8.00;;;8.00;;
7879;SDS011;3985;49.366;2.738;2022-11-20T03:40:06;8.25;;;7.50;;
7879;SDS011;3985;49.366;2.738;2022-11-20T03:42:35;7.50;;;6.00;;
7879;SDS011;3985;49.366;2.738;2022-11-20T03:45:11;7.00;;;7.00;;
7879;SDS011;3985;49.366;2.738;2022-11-20T03:47:41;7.75;;;7.50;;
7879;SDS011;3985;49.366;2.738;2022-11-20T03:50:09;8.00;;;6.00;;
7879;SDS011;3985;49.366;2.738;2022-11-20T03:52:38;9.00;;;7.00;;
7879;SDS011;3985;49.366;2.738;2022-11-20T03:55:06;9.75;;;8.50;;
7879;SDS011;3985;49.366;2.738;2022-11-20T03:57:34;13.75;;;8.75;;
7879;SDS011;3985;49.366;2.738;2022-11-20T04:00:02;8.25;;;8.25;;
7879;SDS011;3985;49.366;2.738;2022-11-20T04:02:31;15.75;;;11.50;;
7879;SDS011;3985;49.366;2.738;2022-11-20T04:05:00;9.00;;;9.00;;
7879;SDS011;3985;49.366;2.738;2022-11-20T04:07:28;11.50;;;10.25;;
7879;SDS011;3985;49.366;2.738;2022-11-20T04:09:56;13.25;;;13.25;;
7879;SDS011;3985;49.366;2.738;2022-11-20T04:12:24;18.75;;;13.50;;
7879;SDS011;3985;49.366;2.738;2022-11-20T04:14:51;14.25;;;12.25;;
7879;SDS011;3985;49.366;2.738;2022-11-20T04:17:19;12.00;;;12.00;;
7879;SDS011;3985;49.366;2.738;2022-11-20T04:19:47;16.25;;;13.00;;
7879;SDS011;3985;49.366;2.738;2022-11-20T04:22:16;15.25;;;12.75;;
7879;SDS011;3985;49.366;2.738;2022-11-20T04:24:43;12.50;;;11.50;;
7879;SDS011;3985;49.366;2.738;2022-11-20T04:27:11;18.25;;;13.75;;
7879;SDS011;3985;49.366;2.738;2022-11-20T04:29:39;11.75;;;11.00;;
7879;SDS011;3985;49.366;2.738;2022-11-20T04:32:06;8.25;;;8.25;;
7879;SDS011;3985;49.366;2.738;2022-11-20T04:34:34;6.75;;;6.75;;
7879;SDS011;3985;49.366;2.738;2022-11-20T04:37:02;6.25;;;4.00;;
7879;SDS011;3985;49.366;2.738;2022-11-20T04:39:31;8.00;;;4.00;;
7879;SDS011;3985;49.366;2.738;2022-11-20T04:42:00;5.00;;;3.50;;
7879;SDS011;3985;49.366;2.738;2022-11-20T04:44:45;6.00;;;4.00;;
7879;SDS011;3985;49.366;2.738;2022-11-20T04:47:13;1.75;;;1.75;;
7879;SDS011;3985;49.366;2.738;2022-11-20T04:49:40;5.00;;;5.00;;
7879;SDS011;3985;49.366;2.738;2022-11-20T04:52:07;3.00;;;3.00;;
7879;SDS011;3985;49.366;2.738;2022-11-20T04:54:36;2.50;;;2.00;;
7879;SDS011;3985;49.366;2.738;2022-11-20T04:57:04;4.00;;;2.50;;
7879;SDS011;3985;49.366;2.738;2022-11-20T04:59:32;2.00;;;2.00;;
7879;SDS011;3985;49.366;2.738;2022-11-20T05:02:01;3.25;;;3.25;;
7879;SDS011;3985;49.366;2.738;2022-11-20T05:04:28;3.00;;;3.00;;
7879;SDS011;3985;49.366;2.738;2022-11-20T05:06:56;2.00;;;2.00;;
7879;SDS011;3985;49.366;2.738;2022-11-20T05:09:23;3.00;;;3.00;;
7879;SDS011;3985;49.366;2.738;2022-11-20T05:11:52;3.00;;;2.00;;
7879;SDS011;3985;49.366;2.738;2022-11-20T05:14:20;3.00;;;3.00;;
7879;SDS011;3985;49.366;2.738;2022-11-20T05:16:47;2.00;;;2.00;;
7879;SDS011;3985;49.366;2.738;2022-11-20T05:19:15;1.25;;;1.25;;
7879;SDS011;3985;49.366;2.738;2022-11-20T05:21:42;4.00;;;3.00;;
7879;SDS011;3985;49.366;2.738;2022-11-20T05:24:10;2.00;;;2.00;;
7879;SDS011;3985;49.366;2.738;2022-11-20T05:26:38;5.50;;;3.00;;
7879;SDS011;3985;49.366;2.738;2022-11-20T05:29:09;4.00;;;4.00;;
7879;SDS011;3985;49.366;2.738;2022-11-20T05:31:38;3.00;;;3.00;;
7879;SDS011;3985;49.366;2.738;2022-11-20T05:34:07;3.75;;;3.75;;
7879;SDS011;3985;49.366;2.738;2022-11-20T05:36:34;6.00;;;2.00;;
7879;SDS011;3985;49.366;2.738;2022-11-20T05:39:02;3.25;;;3.00;;
7879;SDS011;3985;49.366;2.738;2022-11-20T05:41:30;2.00;;;2.00;;
7879;SDS011;3985;49.366;2.738;2022-11-20T05:43:59;3.00;;;3.00;;
7879;SDS011;3985;49.366;2.738;2022-11-20T05:46:28;3.00;;;3.00;;
7879;SDS011;3985;49.366;2.738;2022-11-20T05:48:56;3.75;;;3.50;;
7879;SDS011;3985;49.366;2.738;2022-11-20T05:51:24;2.25;;;2.00;;
7879;SDS011;3985;49.366;2.738;2022-11-20T05:53:53;3.50;;;3.50;;
7879;SDS011;3985;49.366;2.738;2022-11-20T05:56:22;4.00;;;4.00;;
7879;SDS011;3985;49.366;2.738;2022-11-20T05:58:49;3.75;;;3.75;;
7879;SDS011;3985;49.366;2.738;2022-11-20T06:01:18;3.00;;;3.00;;
7879;SDS011;3985;49.366;2.738;2022-11-20T06:03:48;3.00;;;3.00;;
7879;SDS011;3985;49.366;2.738;2022-11-20T06:06:15;4.50;;;4.00;;
7879;SDS011;3985;49.366;2.738;2022-11-20T06:08:44;9.00;;;6.00;;
7879;SDS011;3985;49.366;2.738;2022-11-20T06:11:12;3.75;;;3.25;;
7879;SDS011;3985;49.366;2.738;2022-11-20T06:13:40;3.75;;;3.75;;
7879;SDS011;3985;49.366;2.738;2022-11-20T06:16:08;4.00;;;2.75;;
7879;SDS011;3985;49.366;2.738;2022-11-20T06:18:36;3.00;;;3.00;;
7879;SDS011;3985;49.366;2.738;2022-11-20T06:21:06;1.75;;;1.75;;
7879;SDS011;3985;49.366;2.738;2022-11-20T06:23:35;3.25;;;3.25;;
7879;SDS011;3985;49.366;2.738;2022-11-20T06:26:03;3.00;;;3.00;;
7879;SDS011;3985;49.366;2.738;2022-11-20T06:28:32;6.00;;;2.00;;
7879;SDS011;3985;49.366;2.738;2022-11-20T06:31:00;3.50;;;3.00;;
7879;SDS011;3985;49.366;2.738;2022-11-20T06:33:28;7.50;;;6.00;;
7879;SDS011;3985;49.366;2.738;2022-11-20T06:35:56;2.25;;;2.25;;
7879;SDS011;3985;49.366;2.738;2022-11-20T06:38:26;6.00;;;3.25;;
7879;SDS011;3985;49.366;2.738;2022-11-20T06:40:54;3.00;;;3.00;;
7879;SDS011;3985;49.366;2.738;2022-11-20T06:43:22;6.00;;;3.00;;
7879;SDS011;3985;49.366;2.738;2022-11-20T06:45:51;2.00;;;2.00;;
7879;SDS011;3985;49.366;2.738;2022-11-20T06:48:19;5.50;;;5.50;;
7879;SDS011;3985;49.366;2.738;2022-11-20T06:50:47;3.25;;;3.25;;
7879;SDS011;3985;49.366;2.738;2022-11-20T06:53:14;2.75;;;2.50;;
7879;SDS011;3985;49.366;2.738;2022-11-20T06:55:43;7.50;;;4.00;;
7879;SDS011;3985;49.366;2.738;2022-11-20T06:58:11;3.00;;;3.00;;
7879;SDS011;3985;49.366;2.738;2022-11-20T07:00:39;2.75;;;2.00;;
7879;SDS011;3985;49.366;2.738;2022-11-20T07:03:07;2.00;;;2.00;;
7879;SDS011;3985;49.366;2.738;2022-11-20T07:05:36;5.50;;;3.00;;
7879;SDS011;3985;49.366;2.738;2022-11-20T07:08:05;7.25;;;4.25;;
7879;SDS011;3985;49.366;2.738;2022-11-20T07:10:32;2.50;;;2.50;;
7879;SDS011;3985;49.366;2.738;2022-11-20T07:13:02;3.00;;;3.00;;
7879;SDS011;3985;49.366;2.738;2022-11-20T07:15:31;6.75;;;3.75;;
7879;SDS011;3985;49.366;2.738;2022-11-20T07:18:01;3.50;;;3.50;;
7879;SDS011;3985;49.366;2.738;2022-11-20T07:20:29;4.00;;;4.00;;
7879;SDS011;3985;49.366;2.738;2022-11-20T07:22:57;3.00;;;2.75;;
7879;SDS011;3985;49.366;2.738;2022-11-20T07:25:25;3.00;;;1.00;;
7879;SDS011;3985;49.366;2.738;2022-11-20T07:27:56;2.00;;;2.00;;
7879;SDS011;3985;49.366;2.738;2022-11-20T07:30:25;2.25;;;2.25;;
7879;SDS011;3985;49.366;2.738;2022-11-20T07:32:54;2.00;;;2.00;;
7879;SDS011;3985;49.366;2.738;2022-11-20T07:35:22;3.00;;;3.00;;
7879;SDS011;3985;49.366;2.738;2022-11-20T07:37:50;3.00;;;3.00;;
7879;SDS011;3985;49.366;2.738;2022-11-20T07:40:18;6.00;;;3.00;;
7879;SDS011;3985;49.366;2.738;2022-11-20T07:42:49;6.25;;;3.75;;
7879;SDS011;3985;49.366;2.738;2022-11-20T07:45:18;3.75;;;2.75;;
7879;SDS011;3985;49.366;2.738;2022-11-20T07:47:47;4.00;;;2.50;;
7879;SDS011;3985;49.366;2.738;2022-11-20T07:50:15;3.25;;;3.25;;
7879;SDS011;3985;49.366;2.738;2022-11-20T07:52:42;7.00;;;5.50;;
7879;SDS011;3985;49.366;2.738;2022-11-20T07:55:10;4.50;;;4.50;;
7879;SDS011;3985;49.366;2.738;2022-11-20T07:57:38;4.00;;;4.00;;
7879;SDS011;3985;49.366;2.738;2022-11-20T08:00:07;6.00;;;6.00;;
7879;SDS011;3985;49.366;2.738;2022-11-20T08:02:36;6.00;;;6.00;;
7879;SDS011;3985;49.366;2.738;2022-11-20T08:05:07;10.00;;;10.00;;
7879;SDS011;3985;49.366;2.738;2022-11-20T08:07:36;7.00;;;7.00;;
7879;SDS011;3985;49.366;2.738;2022-11-20T08:10:07;9.50;;;6.00;;
7879;SDS011;3985;49.366;2.738;2022-11-20T08:12:42;11.00;;;9.00;;
7879;SDS011;3985;49.366;2.738;2022-11-20T08:15:28;8.25;;;8.00;;
7879;SDS011;3985;49.366;2.738;2022-11-20T08:18:01;7.00;;;7.00;;
7879;SDS011;3985;49.366;2.738;2022-11-20T08:20:31;6.25;;;6.25;;
7879;SDS011;3985;49.366;2.738;2022-11-20T08:23:02;6.00;;;6.00;;
7879;SDS011;3985;49.366;2.738;2022-11-20T08:25:39;7.00;;;7.00;;
7879;SDS011;3985;49.366;2.738;2022-11-20T08:28:13;8.00;;;8.00;;
7879;SDS011;3985;49.366;2.738;2022-11-20T08:30:41;9.75;;;9.75;;
7879;SDS011;3985;49.366;2.738;2022-11-20T08:33:13;7.75;;;7.75;;
7879;SDS011;3985;49.366;2.738;2022-11-20T08:35:50;6.00;;;6.00;;
7879;SDS011;3985;49.366;2.738;2022-11-20T08:38:24;4.00;;;4.00;;
7879;SDS011;3985;49.366;2.738;2022-11-20T08:40:51;12.00;;;9.25;;
7879;SDS011;3985;49.366;2.738;2022-11-20T08:43:35;8.75;;;7.00;;
7879;SDS011;3985;49.366;2.738;2022-11-20T08:46:05;7.75;;;7.75;;
7879;SDS011;3985;49.366;2.738;2022-11-20T08:48:36;7.50;;;7.50;;
7879;SDS011;3985;49.366;2.738;2022-11-20T08:51:05;8.00;;;6.00;;
7879;SDS011;3985;49.366;2.738;2022-11-20T08:53:36;7.00;;;7.00;;
7879;SDS011;3985;49.366;2.738;2022-11-20T08:56:05;7.75;;;7.75;;
7879;SDS011;3985;49.366;2.738;2022-11-20T08:58:35;7.00;;;7.00;;
7879;SDS011;3985;49.366;2.738;2022-11-20T09:01:02;7.75;;;7.75;;
7879;SDS011;3985;49.366;2.738;2022-11-20T09:03:42;7.25;;;7.25;;
7879;SDS011;3985;49.366;2.738;2022-11-20T09:06:12;8.00;;;7.00;;
7879;SDS011;3985;49.366;2.738;2022-11-20T09:08:40;7.00;;;7.00;;
7879;SDS011;3985;49.366;2.738;2022-11-20T09:11:07;12.00;;;8.00;;
7879;SDS011;3985;49.366;2.738;2022-11-20T09:13:35;9.00;;;9.00;;
7879;SDS011;3985;49.366;2.738;2022-11-20T09:16:03;7.75;;;6.75;;
7879;SDS011;3985;49.366;2.738;2022-11-20T09:18:32;11.25;;;8.50;;
7879;SDS011;3985;49.366;2.738;2022-11-20T09:21:03;7.75;;;7.75;;
7879;SDS011;3985;49.366;2.738;2022-11-20T09:23:33;9.75;;;7.75;;
7879;SDS011;3985;49.366;2.738;2022-11-20T09:26:02;8.50;;;7.00;;
7879;SDS011;3985;49.366;2.738;2022-11-20T09:28:30;9.00;;;7.25;;
7879;SDS011;3985;49.366;2.738;2022-11-20T09:30:58;4.00;;;4.00;;
7879;SDS011;3985;49.366;2.738;2022-11-20T09:33:26;7.00;;;7.00;;
7879;SDS011;3985;49.366;2.738;2022-11-20T09:35:54;6.50;;;6.50;;
7879;SDS011;3985;49.366;2.738;2022-11-20T09:38:21;5.25;;;5.25;;
7879;SDS011;3985;49.366;2.738;2022-11-20T09:40:51;6.75;;;6.75;;
7879;SDS011;3985;49.366;2.738;2022-11-20T09:43:25;4.00;;;4.00;;
7879;SDS011;3985;49.366;2.738;2022-11-20T09:46:04;5.75;;;5.75;;
7879;SDS011;3985;49.366;2.738;2022-11-20T09:48:41;9.00;;;5.25;;
7879;SDS011;3985;49.366;2.738;2022-11-20T09:51:31;5.25;;;5.25;;
7879;SDS011;3985;49.366;2.738;2022-11-20T09:54:09;8.75;;;6.75;;
7879;SDS011;3985;49.366;2.738;2022-11-20T09:56:45;8.50;;;5.00;;
7879;SDS011;3985;49.366;2.738;2022-11-20T09:59:20;4.00;;;4.00;;
7879;SDS011;3985;49.366;2.738;2022-11-20T10:02:01;7.00;;;7.00;;
7879;SDS011;3985;49.366;2.738;2022-11-20T10:04:34;4.00;;;4.00;;
7879;SDS011;3985;49.366;2.738;2022-11-20T10:07:07;9.00;;;7.50;;
7879;SDS011;3985;49.366;2.738;2022-11-20T10:09:40;9.00;;;6.50;;
7879;SDS011;3985;49.366;2.738;2022-11-20T10:12:17;4.00;;;4.00;;
7879;SDS011;3985;49.366;2.738;2022-11-20T10:14:52;4.50;;;4.50;;
7879;SDS011;3985;49.366;2.738;2022-11-20T10:17:33;5.25;;;3.50;;
7879;SDS011;3985;49.366;2.738;2022-11-20T10:20:27;5.50;;;3.75;;
7879;SDS011;3985;49.366;2.738;2022-11-20T10:23:11;5.50;;;3.50;;
7879;SDS011;3985;49.366;2.738;2022-11-20T10:25:54;5.75;;;5.75;;
7879;SDS011;3985;49.366;2.738;2022-11-20T10:31:17;7.75;;;7.00;;
7879;SDS011;3985;49.366;2.738;2022-11-20T10:33:54;8.00;;;6.50;;
7879;SDS011;3985;49.366;2.738;2022-11-20T10:36:25;8.00;;;8.00;;
7879;SDS011;3985;49.366;2.738;2022-11-20T10:38:54;7.25;;;7.25;;
7879;SDS011;3985;49.366;2.738;2022-11-20T10:41:27;6.00;;;6.00;;
7879;SDS011;3985;49.366;2.738;2022-11-20T10:44:02;15.00;;;15.00;;
7879;SDS011;3985;49.366;2.738;2022-11-20T10:46:34;10.00;;;10.00;;
7879;SDS011;3985;49.366;2.738;2022-11-20T10:49:09;9.00;;;8.00;;
7879;SDS011;3985;49.366;2.738;2022-11-20T10:51:41;10.75;;;10.00;;
7879;SDS011;3985;49.366;2.738;2022-11-20T10:54:18;8.50;;;7.00;;
7879;SDS011;3985;49.366;2.738;2022-11-20T10:56:50;6.75;;;6.75;;
7879;SDS011;3985;49.366;2.738;2022-11-20T10:59:31;9.25;;;9.25;;
7879;SDS011;3985;49.366;2.738;2022-11-20T11:02:15;13.75;;;9.25;;
7879;SDS011;3985;49.366;2.738;2022-11-20T11:04:45;13.75;;;9.50;;
7879;SDS011;3985;49.366;2.738;2022-11-20T11:07:15;9.00;;;9.00;;
7879;SDS011;3985;49.366;2.738;2022-11-20T11:09:46;14.25;;;10.00;;
7879;SDS011;3985;49.366;2.738;2022-11-20T11:12:15;9.25;;;9.25;;
7879;SDS011;3985;49.366;2.738;2022-11-20T11:14:57;10.00;;;10.00;;
7879;SDS011;3985;49.366;2.738;2022-11-20T11:17:27;11.50;;;11.50;;
7879;SDS011;3985;49.366;2.738;2022-11-20T11:20:04;9.50;;;9.50;;
7879;SDS011;3985;49.366;2.738;2022-11-20T11:22:42;10.00;;;10.00;;
7879;SDS011;3985;49.366;2.738;2022-11-20T11:25:25;13.25;;;12.75;;
7879;SDS011;3985;49.366;2.738;2022-11-20T11:27:56;15.00;;;13.00;;
7879;SDS011;3985;49.366;2.738;2022-11-20T11:30:26;9.50;;;9.50;;
7879;SDS011;3985;49.366;2.738;2022-11-20T11:33:03;13.00;;;13.00;;
7879;SDS011;3985;49.366;2.738;2022-11-20T11:35:38;10.75;;;10.00;;
7879;SDS011;3985;49.366;2.738;2022-11-20T11:38:13;12.00;;;12.00;;
7879;SDS011;3985;49.366;2.738;2022-11-20T11:40:43;15.50;;;12.50;;
7879;SDS011;3985;49.366;2.738;2022-11-20T11:43:23;10.00;;;10.00;;
7879;SDS011;3985;49.366;2.738;2022-11-20T11:46:20;13.50;;;13.00;;
7879;SDS011;3985;49.366;2.738;2022-11-20T11:48:56;13.50;;;12.75;;
7879;SDS011;3985;49.366;2.738;2022-11-20T11:51:28;13.00;;;10.50;;
7879;SDS011;3985;49.366;2.738;2022-11-20T11:53:59;13.75;;;13.75;;
7879;SDS011;3985;49.366;2.738;2022-11-20T11:56:28;14.25;;;14.25;;
7879;SDS011;3985;49.366;2.738;2022-11-20T11:58:56;10.50;;;9.50;;
7879;SDS011;3985;49.366;2.738;2022-11-20T12:01:29;12.00;;;12.00;;
7879;SDS011;3985;49.366;2.738;2022-11-20T12:04:03;14.00;;;12.75;;
7879;SDS011;3985;49.366;2.738;2022-11-20T12:06:32;10.75;;;9.00;;
7879;SDS011;3985;49.366;2.738;2022-11-20T12:09:02;10.00;;;10.00;;
7879;SDS011;3985;49.366;2.738;2022-11-20T12:11:33;10.00;;;9.25;;
7879;SDS011;3985;49.366;2.738;2022-11-20T12:14:08;1.75;;;1.00;;
7879;SDS011;3985;49.366;2.738;2022-11-20T12:16:40;10.00;;;10.00;;
7879;SDS011;3985;49.366;2.738;2022-11-20T12:19:08;10.00;;;8.50;;
7879;SDS011;3985;49.366;2.738;2022-11-20T12:21:41;13.00;;;9.75;;
7879;SDS011;3985;49.366;2.738;2022-11-20T12:24:24;8.25;;;8.00;;
7879;SDS011;3985;49.366;2.738;2022-11-20T12:27:05;10.75;;;8.75;;
7879;SDS011;3985;49.366;2.738;2022-11-20T12:29:48;10.00;;;10.00;;
7879;SDS011;3985;49.366;2.738;2022-11-20T12:32:35;7.75;;;7.75;;
7879;SDS011;3985;49.366;2.738;2022-11-20T12:35:29;9.00;;;7.00;;
7879;SDS011;3985;49.366;2.738;2022-11-20T12:38:11;7.25;;;7.25;;
7879;SDS011;3985;49.366;2.738;2022-11-20T12:40:51;6.00;;;6.00;;
7879;SDS011;3985;49.366;2.738;2022-11-20T12:43:25;7.00;;;7.00;;
7879;SDS011;3985;49.366;2.738;2022-11-20T12:46:18;5.00;;;5.00;;
7879;SDS011;3985;49.366;2.738;2022-11-20T12:48:55;8.00;;;8.00;;
7879;SDS011;3985;49.366;2.738;2022-11-20T12:51:51;2.25;;;2.25;;
7879;SDS011;3985;49.366;2.738;2022-11-20T12:54:47;8.75;;;8.75;;
7879;SDS011;3985;49.366;2.738;2022-11-20T12:57:32;8.75;;;8.50;;
7879;SDS011;3985;49.366;2.738;2022-11-20T13:00:09;7.00;;;7.00;;
7879;SDS011;3985;49.366;2.738;2022-11-20T13:02:42;4.00;;;4.00;;
7879;SDS011;3985;49.366;2.738;2022-11-20T13:05:30;7.25;;;7.25;;
7879;SDS011;3985;49.366;2.738;2022-11-20T13:08:01;5.50;;;5.50;;
7879;SDS011;3985;49.366;2.738;2022-11-20T13:10:33;5.50;;;4.00;;
7879;SDS011;3985;49.366;2.738;2022-11-20T13:13:11;6.00;;;6.00;;
7879;SDS011;3985;49.366;2.738;2022-11-20T13:15:46;6.50;;;4.00;;
7879;SDS011;3985;49.366;2.738;2022-11-20T13:18:18;3.00;;;3.00;;
7879;SDS011;3985;49.366;2.738;2022-11-20T13:20:47;4.75;;;4.75;;
7879;SDS011;3985;49.366;2.738;2022-11-20T13:23:22;6.50;;;6.50;;
7879;SDS011;3985;49.366;2.738;2022-11-20T13:26:02;4.75;;;4.75;;
7879;SDS011;3985;49.366;2.738;2022-11-20T13:28:41;7.50;;;5.00;;
7879;SDS011;3985;49.366;2.738;2022-11-20T13:31:09;5.50;;;5.50;;
7879;SDS011;3985;49.366;2.738;2022-11-20T13:33:54;5.00;;;5.00;;
7879;SDS011;3985;49.366;2.738;2022-11-20T13:36:25;7.00;;;6.25;;
7879;SDS011;3985;49.366;2.738;2022-11-20T13:38:54;5.00;;;5.00;;
7879;SDS011;3985;49.366;2.738;2022-11-20T13:41:34;5.00;;;5.00;;
7879;SDS011;3985;49.366;2.738;2022-11-20T13:44:09;3.50;;;3.50;;
7879;SDS011;3985;49.366;2.738;2022-11-20T13:46:40;6.50;;;6.50;;
7879;SDS011;3985;49.366;2.738;2022-11-20T13:49:14;8.00;;;8.00;;
7879;SDS011;3985;49.366;2.738;2022-11-20T13:51:53;7.00;;;5.00;;
7879;SDS011;3985;49.366;2.738;2022-11-20T13:54:44;10.25;;;7.50;;
7879;SDS011;3985;49.366;2.738;2022-11-20T13:57:36;8.00;;;8.00;;
7879;SDS011;3985;49.366;2.738;2022-11-20T14:00:20;7.00;;;7.00;;
7879;SDS011;3985;49.366;2.738;2022-11-20T14:02:52;7.25;;;7.25;;
7879;SDS011;3985;49.366;2.738;2022-11-20T14:05:28;6.50;;;6.50;;
7879;SDS011;3985;49.366;2.738;2022-11-20T14:08:09;;;;;;
7879;SDS011;3985;49.366;2.738;2022-11-20T14:10:46;6.00;;;4.00;;
7879;SDS011;3985;49.366;2.738;2022-11-20T14:13:17;5.75;;;4.25;;
7879;SDS011;3985;49.366;2.738;2022-11-20T14:15:46;6.00;;;6.00;;
7879;SDS011;3985;49.366;2.738;2022-11-20T14:18:19;5.00;;;5.00;;
7879;SDS011;3985;49.366;2.738;2022-11-20T14:20:59;4.00;;;4.00;;
7879;SDS011;3985;49.366;2.738;2022-11-20T14:23:30;5.00;;;5.00;;
7879;SDS011;3985;49.366;2.738;2022-11-20T14:25:57;5.25;;;5.25;;
7879;SDS011;3985;49.366;2.738;2022-11-20T14:28:27;6.25;;;5.75;;
7879;SDS011;3985;49.366;2.738;2022-11-20T14:30:56;4.00;;;4.00;;
7879;SDS011;3985;49.366;2.738;2022-11-20T14:33:25;4.75;;;4.75;;
7879;SDS011;3985;49.366;2.738;2022-11-20T14:35:53;5.75;;;4.00;;
7879;SDS011;3985;49.366;2.738;2022-11-20T14:38:22;7.00;;;4.00;;
7879;SDS011;3985;49.366;2.738;2022-11-20T14:40:53;3.50;;;3.50;;
7879;SDS011;3985;49.366;2.738;2022-11-20T14:43:22;3.75;;;3.75;;
7879;SDS011;3985;49.366;2.738;2022-11-20T14:45:57;4.75;;;3.25;;
7879;SDS011;3985;49.366;2.738;2022-11-20T14:48:28;4.50;;;4.50;;
7879;SDS011;3985;49.366;2.738;2022-11-20T14:50:57;6.25;;;6.00;;
7879;SDS011;3985;49.366;2.738;2022-11-20T14:53:25;4.75;;;4.00;;
7879;SDS011;3985;49.366;2.738;2022-11-20T14:55:58;9.50;;;6.00;;
7879;SDS011;3985;49.366;2.738;2022-11-20T14:58:29;3.75;;;3.75;;
7879;SDS011;3985;49.366;2.738;2022-11-20T15:00:59;5.25;;;5.25;;
7879;SDS011;3985;49.366;2.738;2022-11-20T15:03:31;4.00;;;4.00;;
7879;SDS011;3985;49.366;2.738;2022-11-20T15:05:59;4.50;;;4.25;;
7879;SDS011;3985;49.366;2.738;2022-11-20T15:08:26;5.00;;;5.00;;
7879;SDS011;3985;49.366;2.738;2022-11-20T15:10:55;5.25;;;5.25;;
7879;SDS011;3985;49.366;2.738;2022-11-20T15:13:25;4.25;;;4.25;;
7879;SDS011;3985;49.366;2.738;2022-11-20T15:15:56;6.00;;;6.00;;
7879;SDS011;3985;49.366;2.738;2022-11-20T15:18:26;7.25;;;5.25;;
7879;SDS011;3985;49.366;2.738;2022-11-20T15:20:55;3.25;;;3.25;;
7879;SDS011;3985;49.366;2.738;2022-11-20T15:23:23;5.50;;;4.50;;
7879;SDS011;3985;49.366;2.738;2022-11-20T15:25:51;8.25;;;6.00;;
7879;SDS011;3985;49.366;2.738;2022-11-20T15:28:21;3.25;;;3.25;;
7879;SDS011;3985;49.366;2.738;2022-11-20T15:30:49;3.00;;;3.00;;
7879;SDS011;3985;49.366;2.738;2022-11-20T15:33:17;4.75;;;4.00;;
7879;SDS011;3985;49.366;2.738;2022-11-20T15:35:45;3.75;;;3.75;;
7879;SDS011;3985;49.366;2.738;2022-11-20T15:38:12;4.00;;;4.00;;
7879;SDS011;3985;49.366;2.738;2022-11-20T15:40:40;6.25;;;6.25;;
7879;SDS011;3985;49.366;2.738;2022-11-20T15:43:07;5.25;;;5.25;;
7879;SDS011;3985;49.366;2.738;2022-11-20T15:45:38;6.25;;;4.75;;